createdAt,value
2019-01-28T00:00:11.871Z,60.97
2019-01-28T00:02:44.981Z,63.80
2019-01-28T00:05:18.039Z,61.17
2019-01-28T00:07:51.289Z,52.23
2019-01-28T00:10:24.310Z,58.50
2019-01-28T00:12:57.699Z,62.30
2019-01-28T00:15:32.296Z,54.93
2019-01-28T00:18:05.558Z,58.33
2019-01-28T00:20:38.611Z,55.73
2019-01-28T00:23:13.229Z,58.17
2019-01-28T00:25:46.641Z,57.67
2019-01-28T00:28:19.595Z,56.60
2019-01-28T00:30:52.980Z,54.13
2019-01-28T00:33:26.356Z,59.87
2019-01-28T00:35:59.469Z,57.23
2019-01-28T00:38:32.606Z,51.30
2019-01-28T00:41:05.962Z,56.27
2019-01-28T00:43:39.121Z,53.43
2019-01-28T00:46:12.051Z,49.20
2019-01-28T00:48:44.935Z,54.20
2019-01-28T00:51:19.237Z,47.20
2019-01-28T00:53:54.621Z,58.63
2019-01-28T00:56:27.872Z,51.40
2019-01-28T00:59:01.595Z,45.77
2019-01-28T01:01:34.902Z,54.63
2019-01-28T01:04:08.373Z,46.87
2019-01-28T01:06:42.512Z,52.47
2019-01-28T01:09:15.993Z,57.10
2019-01-28T01:11:49.036Z,55.83
2019-01-28T01:14:22.024Z,52.70
2019-01-28T01:16:55.184Z,50.40
2019-01-28T01:19:28.295Z,52.13
2019-01-28T01:22:01.451Z,50.53
2019-01-28T01:24:34.571Z,49.20
2019-01-28T01:27:08.843Z,45.63
2019-01-28T01:29:42.102Z,50.63
2019-01-28T01:32:15.556Z,51.13
2019-01-28T01:34:48.819Z,56.70
2019-01-28T01:37:21.867Z,45.23
2019-01-28T01:39:54.978Z,50.17
2019-01-28T01:42:27.993Z,51.47
2019-01-28T01:45:00.929Z,45.93
2019-01-28T01:47:33.815Z,45.90
2019-01-28T01:50:09.036Z,55.17
2019-01-28T01:52:42.080Z,49.17
2019-01-28T01:55:17.034Z,44.67
2019-01-28T01:57:50.146Z,50.40
2019-01-28T02:00:24.498Z,44.27
2019-01-28T02:02:59.318Z,40.17
2019-01-28T02:05:32.299Z,40.97
2019-01-28T02:08:05.559Z,48.80
2019-01-28T02:10:38.507Z,48.70
2019-01-28T02:13:11.683Z,45.70
2019-01-28T02:15:44.992Z,44.77
2019-01-28T02:18:19.209Z,48.30
2019-01-28T02:20:52.342Z,45.33
2019-01-28T02:23:25.522Z,41.23
2019-01-28T02:25:58.766Z,53.33
2019-01-28T02:28:31.727Z,43.43
2019-01-28T02:31:04.767Z,45.30
2019-01-28T02:33:38.535Z,46.80
2019-01-28T02:36:11.984Z,45.33
2019-01-28T02:38:45.035Z,54.37
2019-01-28T02:41:17.908Z,42.57
2019-01-28T02:43:51.349Z,45.33
2019-01-28T02:46:24.470Z,48.53
2019-01-28T02:48:59.081Z,39.70
2019-01-28T02:51:32.188Z,48.33
2019-01-28T02:54:05.286Z,46.97
2019-01-28T02:56:38.805Z,61.33
2019-01-28T02:59:11.920Z,57.73
2019-01-28T03:01:45.434Z,46.70
2019-01-28T03:04:18.855Z,47.73
2019-01-28T03:06:52.812Z,46.27
2019-01-28T03:09:26.738Z,46.30
2019-01-28T03:11:59.957Z,44.73
2019-01-28T03:14:33.281Z,44.20
2019-01-28T03:17:10.162Z,45.97
2019-01-28T03:19:44.095Z,44.27
2019-01-28T03:22:18.243Z,44.30
2019-01-28T03:24:51.632Z,51.27
2019-01-28T03:27:24.582Z,53.07
2019-01-28T03:29:57.985Z,43.93
2019-01-28T03:32:31.029Z,49.23
2019-01-28T03:35:04.330Z,49.20
2019-01-28T03:37:39.019Z,46.30
2019-01-28T03:40:15.654Z,51.20
2019-01-28T03:42:48.890Z,44.53
2019-01-28T03:45:23.034Z,49.20
2019-01-28T03:47:56.161Z,51.63
2019-01-28T03:50:29.501Z,51.03
2019-01-28T03:53:02.681Z,41.57
2019-01-28T03:55:36.591Z,56.40
2019-01-28T03:58:09.924Z,48.60
2019-01-28T04:00:43.327Z,56.80
2019-01-28T04:03:16.311Z,59.70
2019-01-28T04:05:49.718Z,76.60
2019-01-28T04:08:22.730Z,61.57
2019-01-28T04:10:55.875Z,57.90
2019-01-28T04:13:28.952Z,84.63
2019-01-28T04:16:01.955Z,58.23
2019-01-28T04:18:35.065Z,63.53
2019-01-28T04:21:07.836Z,57.47
2019-01-28T04:23:41.209Z,58.20
2019-01-28T04:26:14.817Z,68.20
2019-01-28T04:28:48.019Z,73.90
2019-01-28T04:31:21.546Z,66.97
2019-01-28T04:33:54.800Z,59.63
2019-01-28T04:36:28.328Z,75.90
2019-01-28T04:39:01.707Z,66.43
2019-01-28T04:41:35.153Z,68.53
2019-01-28T04:44:08.500Z,65.43
2019-01-28T04:46:41.868Z,66.90
2019-01-28T04:49:14.841Z,70.00
2019-01-28T04:51:48.200Z,65.73
2019-01-28T04:54:21.444Z,69.53
2019-01-28T04:56:55.059Z,62.67
2019-01-28T04:59:29.761Z,60.77
2019-01-28T05:02:03.149Z,61.40
2019-01-28T05:04:36.728Z,62.23
2019-01-28T05:07:10.306Z,55.50
2019-01-28T05:09:43.505Z,60.43
2019-01-28T05:12:16.877Z,56.10
2019-01-28T05:14:50.294Z,72.93
2019-01-28T05:17:23.632Z,83.77
2019-01-28T05:19:57.072Z,81.20
2019-01-28T05:22:30.620Z,62.80
2019-01-28T05:25:04.134Z,68.50
2019-01-28T05:27:37.465Z,61.57
2019-01-28T05:30:17.466Z,96.33
2019-01-28T05:32:50.877Z,86.77
2019-01-28T05:35:25.470Z,67.63
2019-01-28T05:37:58.850Z,57.10
2019-01-28T05:40:32.140Z,60.27
2019-01-28T05:43:07.060Z,62.93
2019-01-28T05:45:40.099Z,91.83
2019-01-28T05:48:13.311Z,71.27
2019-01-28T05:50:46.338Z,70.47
2019-01-28T05:53:19.644Z,65.47
2019-01-28T05:55:53.314Z,66.23
2019-01-28T05:58:26.354Z,66.37
2019-01-28T06:00:59.657Z,94.50
2019-01-28T06:03:32.956Z,66.20
2019-01-28T06:06:06.359Z,65.77
2019-01-28T06:08:39.321Z,68.50
2019-01-28T06:11:12.639Z,65.47
2019-01-28T06:13:45.670Z,60.03
2019-01-28T06:16:18.498Z,62.27
2019-01-28T06:18:51.668Z,75.20
2019-01-28T06:21:25.748Z,63.83
2019-01-28T06:23:58.984Z,73.97
2019-01-28T06:26:32.107Z,71.13
2019-01-28T06:29:05.606Z,82.80
2019-01-28T06:31:39.364Z,83.70
2019-01-28T06:34:12.489Z,79.67
2019-01-28T06:36:45.596Z,94.03
2019-01-28T06:39:18.857Z,104.77
2019-01-28T06:41:51.801Z,73.47
2019-01-28T06:44:25.032Z,92.27
2019-01-28T06:46:58.311Z,66.90
2019-01-28T06:49:31.568Z,69.93
2019-01-28T06:52:04.928Z,68.13
2019-01-28T06:54:39.820Z,97.90
2019-01-28T06:57:13.096Z,81.23
2019-01-28T06:59:46.182Z,94.47
2019-01-28T07:02:19.379Z,87.40
2019-01-28T07:04:52.631Z,75.07
2019-01-28T07:07:25.993Z,74.83
2019-01-28T07:09:59.409Z,68.03
2019-01-28T07:12:32.297Z,78.90
2019-01-28T07:15:05.957Z,99.13
2019-01-28T07:17:39.152Z,122.40
2019-01-28T07:20:17.597Z,100.47
2019-01-28T07:22:50.929Z,99.43
2019-01-28T07:25:24.021Z,237.47
2019-01-28T07:27:57.373Z,272.57
2019-01-28T07:30:36.652Z,131.03
2019-01-28T07:33:09.952Z,127.93
2019-01-28T07:35:42.932Z,131.77
2019-01-28T07:38:16.095Z,149.93
2019-01-28T07:40:49.270Z,104.83
2019-01-28T07:43:22.331Z,110.13
2019-01-28T07:45:55.364Z,111.43
2019-01-28T07:48:29.838Z,102.80
2019-01-28T07:51:03.306Z,91.63
2019-01-28T07:53:36.664Z,79.37
2019-01-28T07:56:10.062Z,86.37
2019-01-28T07:58:43.470Z,86.20
2019-01-28T08:01:16.896Z,72.00
2019-01-28T08:03:50.384Z,83.43
2019-01-28T08:06:24.194Z,85.57
2019-01-28T08:08:57.513Z,88.07
2019-01-28T08:11:30.874Z,95.30
2019-01-28T08:14:04.206Z,102.87
2019-01-28T08:16:37.981Z,83.07
2019-01-28T08:19:11.801Z,70.37
2019-01-28T08:21:45.272Z,103.00
2019-01-28T08:24:18.397Z,100.77
2019-01-28T08:26:52.108Z,105.33
2019-01-28T08:29:25.488Z,92.53
2019-01-28T08:31:59.037Z,111.20
2019-01-28T08:34:34.252Z,96.73
2019-01-28T08:37:08.127Z,98.40
2019-01-28T08:39:42.873Z,97.27
2019-01-28T08:42:16.134Z,103.00
2019-01-28T08:44:49.716Z,104.37
2019-01-28T08:47:23.365Z,101.70
2019-01-28T08:49:56.654Z,111.70
2019-01-28T08:52:30.536Z,106.77
2019-01-28T08:55:05.325Z,120.43
2019-01-28T08:57:39.132Z,127.83
2019-01-28T09:00:24.859Z,111.77
2019-01-28T09:02:58.262Z,104.93
2019-01-28T09:05:31.763Z,112.57
2019-01-28T09:08:05.648Z,114.30
2019-01-28T09:10:39.618Z,111.50
2019-01-28T09:13:13.018Z,109.73
2019-01-28T09:15:46.275Z,107.83
2019-01-28T09:18:26.282Z,108.73
2019-01-28T09:20:55.195Z,125.77
2019-01-28T09:23:28.518Z,124.00
2019-01-28T09:26:02.052Z,118.77
2019-01-28T09:28:35.606Z,118.50
2019-01-28T09:31:09.282Z,109.57
2019-01-28T09:33:42.435Z,124.37
2019-01-28T09:36:15.891Z,118.20
2019-01-28T09:38:49.736Z,111.97
2019-01-28T09:41:22.852Z,110.93
2019-01-28T09:43:55.948Z,110.13
2019-01-28T09:46:29.266Z,103.77
2019-01-28T09:49:02.473Z,97.17
2019-01-28T09:51:35.965Z,90.20
2019-01-28T09:54:09.963Z,77.00
2019-01-28T09:56:43.797Z,73.57
2019-01-28T09:59:17.142Z,74.60
2019-01-28T10:01:50.422Z,68.27
2019-01-28T10:04:24.005Z,83.47
2019-01-28T10:06:57.369Z,57.03
2019-01-28T10:09:30.815Z,55.43
2019-01-28T10:12:04.096Z,54.40
2019-01-28T10:14:37.316Z,50.10
2019-01-28T10:17:10.857Z,49.67
2019-01-28T10:19:44.212Z,54.97
2019-01-28T10:22:17.651Z,48.23
2019-01-28T10:24:50.808Z,50.73
2019-01-28T10:27:24.224Z,41.67
2019-01-28T10:29:57.714Z,62.47
2019-01-28T10:32:35.932Z,43.17
2019-01-28T10:35:06.723Z,40.57
2019-01-28T10:37:40.499Z,37.23
2019-01-28T10:40:17.676Z,39.30
2019-01-28T10:42:51.049Z,39.20
2019-01-28T10:45:24.681Z,42.03
2019-01-28T10:48:00.742Z,39.87
2019-01-28T10:50:35.708Z,37.40
2019-01-28T10:53:09.685Z,42.83
2019-01-28T10:55:44.165Z,42.23
2019-01-28T10:58:17.622Z,43.80
2019-01-28T11:00:53.149Z,44.23
2019-01-28T11:03:28.085Z,44.00
2019-01-28T11:06:01.471Z,51.90
2019-01-28T11:08:36.284Z,49.50
2019-01-28T11:11:09.700Z,47.53
2019-01-28T11:13:42.763Z,56.37
2019-01-28T11:16:16.278Z,51.40
2019-01-28T11:18:57.375Z,52.00
2019-01-28T11:21:25.292Z,43.03
2019-01-28T11:23:58.854Z,46.60
2019-01-28T11:26:32.426Z,40.77
2019-01-28T11:29:05.869Z,44.23
2019-01-28T11:31:39.160Z,40.80
2019-01-28T11:34:13.020Z,35.90
2019-01-28T11:36:46.181Z,34.83
2019-01-28T11:39:19.588Z,36.67
2019-01-28T11:41:52.947Z,38.53
2019-01-28T11:44:26.415Z,40.57
2019-01-28T11:47:00.085Z,49.77
2019-01-28T11:49:33.677Z,41.87
2019-01-28T11:52:07.435Z,50.07
2019-01-28T11:54:40.827Z,37.50
2019-01-28T11:57:14.523Z,39.77
2019-01-28T11:59:48.130Z,64.17
2019-01-28T12:02:21.994Z,38.20
2019-01-28T12:04:55.852Z,52.67
2019-01-28T12:07:29.665Z,41.70
2019-01-28T12:10:03.165Z,39.13
2019-01-28T12:12:36.993Z,36.97
2019-01-28T12:15:12.700Z,45.13
2019-01-28T12:17:45.972Z,37.77
2019-01-28T12:20:20.145Z,42.67
2019-01-28T12:22:53.454Z,41.90
2019-01-28T12:25:27.015Z,87.63
2019-01-28T12:28:00.470Z,37.33
2019-01-28T12:30:34.439Z,40.07
2019-01-28T12:33:07.919Z,42.43
2019-01-28T12:35:41.389Z,38.97
2019-01-28T12:38:14.586Z,71.03
2019-01-28T12:40:48.336Z,93.13
2019-01-28T12:43:21.640Z,47.97
2019-01-28T12:45:54.872Z,42.63
2019-01-28T12:48:28.178Z,45.47
2019-01-28T12:51:01.575Z,62.67
2019-01-28T12:53:34.879Z,47.23
2019-01-28T12:56:08.233Z,48.73
2019-01-28T12:58:44.892Z,43.20
2019-01-28T13:01:18.420Z,46.50
2019-01-28T13:03:51.772Z,45.33
2019-01-28T13:06:25.663Z,44.00
2019-01-28T13:08:59.259Z,45.63
2019-01-28T13:11:32.599Z,40.93
2019-01-28T13:14:06.790Z,55.20
2019-01-28T13:16:40.136Z,58.77
2019-01-28T13:19:13.531Z,54.00
2019-01-28T13:21:47.385Z,54.40
2019-01-28T13:24:20.902Z,42.00
2019-01-28T13:26:54.261Z,41.57
2019-01-28T13:29:27.593Z,42.60
2019-01-28T13:32:01.306Z,45.10
2019-01-28T13:34:34.472Z,42.30
2019-01-28T13:37:27.701Z,46.93
2019-01-28T13:40:01.135Z,66.43
2019-01-28T13:42:34.450Z,52.03
2019-01-28T13:45:08.939Z,38.00
2019-01-28T13:47:42.313Z,50.77
2019-01-28T13:50:20.196Z,35.90
2019-01-28T13:52:54.969Z,40.47
2019-01-28T13:55:28.393Z,53.50
2019-01-28T13:58:01.871Z,46.27
2019-01-28T14:00:35.547Z,42.83
2019-01-28T14:03:09.569Z,41.27
2019-01-28T14:05:43.559Z,42.20
2019-01-28T14:08:17.239Z,47.57
2019-01-28T14:10:50.862Z,49.97
2019-01-28T14:13:24.573Z,44.90
2019-01-28T14:15:58.417Z,38.97
2019-01-28T14:18:32.485Z,44.50
2019-01-28T14:21:08.625Z,41.43
2019-01-28T14:23:44.612Z,34.30
2019-01-28T14:26:17.750Z,38.67
2019-01-28T14:28:51.402Z,37.80
2019-01-28T14:31:25.142Z,42.40
2019-01-28T14:33:58.400Z,43.70
2019-01-28T14:36:34.273Z,39.10
2019-01-28T14:39:13.663Z,44.50
2019-01-28T14:41:49.985Z,44.40
2019-01-28T14:44:23.749Z,45.80
2019-01-28T14:46:57.784Z,40.23
2019-01-28T14:49:32.464Z,35.07
2019-01-28T14:52:06.681Z,41.93
2019-01-28T14:54:40.410Z,35.83
2019-01-28T14:57:14.250Z,49.63
2019-01-28T14:59:48.487Z,37.13
2019-01-28T15:02:22.355Z,46.77
2019-01-28T15:04:56.498Z,76.93
2019-01-28T15:07:31.431Z,34.97
2019-01-28T15:10:04.899Z,44.53
2019-01-28T15:12:44.244Z,59.53
2019-01-28T15:15:17.510Z,72.17
2019-01-28T15:17:51.447Z,68.10
2019-01-28T15:20:25.138Z,58.53
2019-01-28T15:23:01.493Z,123.90
2019-01-28T15:25:34.707Z,59.93
2019-01-28T15:28:11.388Z,42.17
2019-01-28T15:30:45.612Z,35.43
2019-01-28T15:33:19.696Z,39.03
2019-01-28T15:35:53.327Z,32.53
2019-01-28T15:38:27.141Z,41.87
2019-01-28T15:41:01.088Z,58.83
2019-01-28T15:43:34.849Z,45.33
2019-01-28T15:46:08.215Z,39.80
2019-01-28T15:48:41.749Z,74.27
2019-01-28T15:51:18.108Z,68.07
2019-01-28T15:53:52.000Z,54.97
2019-01-28T15:56:27.817Z,45.97
2019-01-28T15:59:01.225Z,55.43
2019-01-28T16:01:35.019Z,56.10
2019-01-28T16:04:08.735Z,62.80
2019-01-28T16:06:42.609Z,56.63
2019-01-28T16:09:16.434Z,45.37
2019-01-28T16:11:49.921Z,53.30
2019-01-28T16:14:23.535Z,86.30
2019-01-28T16:16:57.016Z,58.90
2019-01-28T16:19:32.038Z,60.70
2019-01-28T16:22:06.350Z,61.17
2019-01-28T16:24:40.692Z,46.33
2019-01-28T16:27:18.112Z,49.27
2019-01-28T16:29:55.518Z,52.17
2019-01-28T16:32:34.150Z,67.57
2019-01-28T16:35:11.002Z,51.23
2019-01-28T16:37:44.959Z,48.20
2019-01-28T16:40:20.797Z,127.17
2019-01-28T16:42:54.621Z,89.97
2019-01-28T16:45:30.728Z,59.37
2019-01-28T16:48:07.965Z,64.17
2019-01-28T16:50:41.642Z,85.50
2019-01-28T16:53:16.015Z,67.07
2019-01-28T16:55:49.925Z,57.43
2019-01-28T16:58:24.476Z,64.07
2019-01-28T17:01:01.603Z,72.73
2019-01-28T17:03:34.921Z,51.00
2019-01-28T17:06:08.798Z,97.60
2019-01-28T17:08:42.431Z,82.37
2019-01-28T17:11:16.195Z,68.50
2019-01-28T17:13:49.737Z,66.53
2019-01-28T17:16:24.257Z,145.50
2019-01-28T17:18:57.636Z,78.60
2019-01-28T17:21:30.804Z,72.67
2019-01-28T17:24:04.317Z,77.10
2019-01-28T17:26:57.961Z,69.50
2019-01-28T17:29:31.472Z,67.77
2019-01-28T17:32:04.768Z,62.03
2019-01-28T17:34:38.532Z,76.57
2019-01-28T17:37:13.257Z,68.33
2019-01-28T17:39:47.158Z,60.50
2019-01-28T17:42:20.623Z,54.60
2019-01-28T17:44:53.669Z,49.63
2019-01-28T17:47:27.307Z,50.90
2019-01-28T17:50:01.472Z,51.57
2019-01-28T17:52:34.956Z,50.90
2019-01-28T17:55:09.057Z,50.83
2019-01-28T17:57:42.652Z,53.53
2019-01-28T18:00:30.009Z,52.80
2019-01-28T18:03:05.967Z,52.77
2019-01-28T18:05:41.925Z,56.47
2019-01-28T18:08:15.988Z,53.83
2019-01-28T18:10:50.096Z,56.77
2019-01-28T18:13:23.352Z,63.80
2019-01-28T18:15:56.489Z,61.87
2019-01-28T18:18:30.118Z,71.97
2019-01-28T18:21:03.570Z,97.47
2019-01-28T18:23:48.738Z,53.13
2019-01-28T18:26:21.840Z,43.43
2019-01-28T18:28:54.712Z,42.37
2019-01-28T18:31:27.924Z,48.07
2019-01-28T18:34:01.202Z,49.30
2019-01-28T18:36:34.221Z,58.50
2019-01-28T18:39:11.273Z,63.13
2019-01-28T18:41:44.322Z,74.50
2019-01-28T18:44:17.727Z,74.43
2019-01-28T18:46:51.258Z,69.40
2019-01-28T18:49:24.346Z,67.53
2019-01-28T18:51:57.419Z,91.67
2019-01-28T18:54:30.554Z,89.27
2019-01-28T18:57:03.367Z,80.67
2019-01-28T18:59:37.272Z,70.30
2019-01-28T19:02:10.638Z,58.87
2019-01-28T19:04:43.868Z,71.40
2019-01-28T19:07:42.015Z,69.57
2019-01-28T19:10:34.768Z,74.10
2019-01-28T19:13:14.519Z,88.87
2019-01-28T19:16:09.537Z,73.87
2019-01-28T19:18:49.562Z,64.43
2019-01-28T19:21:37.091Z,61.13
2019-01-28T19:24:10.271Z,73.07
2019-01-28T19:26:43.384Z,166.27
2019-01-28T19:29:17.001Z,152.57
2019-01-28T19:31:50.380Z,102.93
2019-01-28T19:34:23.620Z,118.87
2019-01-28T19:36:57.056Z,170.60
2019-01-28T19:39:31.120Z,80.17
2019-01-28T19:42:04.407Z,80.47
2019-01-28T19:44:37.593Z,70.73
2019-01-28T19:47:11.379Z,50.87
2019-01-28T19:49:44.520Z,55.83
2019-01-28T19:52:17.716Z,66.83
2019-01-28T19:54:51.074Z,73.10
2019-01-28T19:57:24.187Z,76.27
2019-01-28T19:59:57.104Z,74.50
2019-01-28T20:02:30.099Z,60.43
2019-01-28T20:05:03.433Z,59.63
2019-01-28T20:07:36.503Z,82.67
2019-01-28T20:10:10.490Z,70.00
2019-01-28T20:12:44.044Z,58.77
2019-01-28T20:15:19.120Z,61.77
2019-01-28T20:17:52.451Z,62.90
2019-01-28T20:20:25.797Z,65.40
2019-01-28T20:22:59.351Z,104.87
2019-01-28T20:25:32.622Z,72.50
2019-01-28T20:28:05.884Z,68.00
2019-01-28T20:30:38.996Z,63.83
2019-01-28T20:33:12.559Z,66.40
2019-01-28T20:35:45.564Z,56.97
2019-01-28T20:38:18.848Z,64.37
2019-01-28T20:40:52.259Z,59.47
2019-01-28T20:43:25.584Z,66.57
2019-01-28T20:45:59.034Z,53.80
2019-01-28T20:48:32.169Z,54.53
2019-01-28T20:51:05.736Z,52.17
2019-01-28T20:53:38.999Z,65.07
2019-01-28T20:56:12.964Z,50.77
2019-01-28T20:58:48.140Z,59.57
2019-01-28T21:01:21.573Z,53.47
2019-01-28T21:03:55.031Z,60.20
2019-01-28T21:06:28.362Z,62.90
2019-01-28T21:09:01.876Z,68.10
2019-01-28T21:11:35.410Z,69.87
2019-01-28T21:14:08.723Z,80.30
2019-01-28T21:16:42.392Z,68.20
2019-01-28T21:19:15.626Z,62.07
2019-01-28T21:21:48.755Z,69.80
2019-01-28T21:24:21.938Z,83.80
2019-01-28T21:26:55.286Z,78.27
2019-01-28T21:29:28.564Z,87.87
2019-01-28T21:32:03.474Z,63.30
2019-01-28T21:34:36.435Z,41.70
2019-01-28T21:37:22.513Z,49.70
2019-01-28T21:39:56.677Z,27.77
2019-01-28T21:42:30.607Z,62.03
2019-01-28T21:45:05.857Z,43.33
2019-01-28T21:47:39.019Z,43.93
2019-01-28T21:50:12.761Z,38.47
2019-01-28T21:52:45.831Z,37.40
2019-01-28T21:55:19.168Z,46.10
2019-01-28T21:57:52.426Z,47.03
2019-01-28T22:00:26.116Z,57.07
2019-01-28T22:02:59.330Z,73.30
2019-01-28T22:05:32.569Z,55.47
2019-01-28T22:08:05.561Z,44.73
2019-01-28T22:10:38.987Z,127.33
2019-01-28T22:13:12.180Z,64.30
2019-01-28T22:15:45.177Z,71.87
2019-01-28T22:18:18.473Z,68.63
2019-01-28T22:20:51.835Z,59.93
2019-01-28T22:23:24.852Z,61.07
2019-01-28T22:25:57.826Z,57.37
2019-01-28T22:28:30.920Z,51.43
2019-01-28T22:31:04.067Z,57.93
2019-01-28T22:33:37.317Z,77.43
2019-01-28T22:36:10.732Z,62.77
2019-01-28T22:38:44.995Z,63.13
2019-01-28T22:41:18.687Z,82.20
2019-01-28T22:43:51.649Z,52.43
2019-01-28T22:46:24.722Z,55.43
2019-01-28T22:48:57.781Z,51.53
2019-01-28T22:51:30.777Z,67.30
2019-01-28T22:54:03.843Z,60.97
2019-01-28T22:56:37.286Z,58.00
2019-01-28T22:59:10.275Z,51.50
2019-01-28T23:01:43.406Z,75.10
2019-01-28T23:04:16.819Z,83.33
2019-01-28T23:06:49.939Z,81.23
2019-01-28T23:09:23.002Z,53.87
2019-01-28T23:11:55.709Z,51.27
2019-01-28T23:14:28.745Z,61.53
2019-01-28T23:17:01.887Z,54.67
2019-01-28T23:19:35.825Z,60.20
2019-01-28T23:22:16.292Z,150.87
2019-01-28T23:24:44.781Z,61.60
2019-01-28T23:27:17.896Z,59.07
2019-01-28T23:29:51.083Z,76.60
2019-01-28T23:32:24.161Z,55.70
2019-01-28T23:34:58.188Z,75.13
2019-01-28T23:37:31.269Z,82.13
2019-01-28T23:40:04.772Z,58.57
2019-01-28T23:42:37.937Z,56.40
2019-01-28T23:45:11.635Z,50.97
2019-01-28T23:47:45.127Z,44.53
2019-01-28T23:50:18.286Z,59.83
2019-01-28T23:52:51.369Z,47.77
2019-01-28T23:55:24.301Z,59.10
2019-01-28T23:57:58.747Z,60.40
